Impacts METAR Board
IDs:

KORD - Chicago/O'Hare Intl, IL, US

Updated at: 1900 UTC 22 Sep 2018
Potential Impact None Slight Moderate High
Time 22/07Z 22/08Z 22/09Z 22/10Z 22/11Z 22/12Z 22/13Z 22/14Z 22/15Z 22/16Z 22/17Z 22/18Z 22/19Z
Temp55 53 53 51 52 52 58 60 60 61 61 62 62
Dewpt43 42 43 44 44 45 42 41 42 43 41 39 41
Altim30.28 30.29 30.28 30.29 30.29 30.31 30.32 30.32 30.33 30.34 30.32 30.30 30.28
VIS10 10 10 10 10 10 10 10 10 10 10 10 10
CIG38 38 40 250 40 39 -- -- -- -- -- -- --
CoverOVCOVCOVCOVCBKNBKNSCTFEWSCTFEWFEWFEWFEW
FltCatVFRVFRVFRVFRVFRVFRVFRVFRVFRVFRVFRVFRVFR
WX--------------------------
WDir36035035035036034070909070707070
WSpd10 11 11 10 10 5 11 17 15 13 13 10 9
WGst-- -- -- -- -- -- -- -- -- -- -- -- --
Raw hourly METARs
KORD 220651Z 36010KT 10SM BKN038 OVC250 13/06 A3028 RMK AO2 SLP252 T01280061
KORD 220751Z 35011KT 10SM FEW031 BKN038 OVC250 12/06 A3029 RMK AO2 SLP255 T01170056
KORD 220851Z 35011KT 10SM FEW031 BKN040 OVC250 12/06 A3028 RMK AO2 SLP253 T01170061 50003
KORD 220951Z 35010KT 10SM SCT040 OVC250 11/07 A3029 RMK AO2 SLP257 T01060067
KORD 221051Z 36010KT 10SM FEW031 BKN040 BKN250 11/07 A3029 RMK AO2 SLP258 T01110067
KORD 221151Z 34005KT 10SM BKN039 BKN250 11/07 A3031 RMK AO2 SLP263 T01110072 10139 20106 53009
KORD 221251Z 07011KT 10SM FEW038 SCT250 14/06 A3032 RMK AO2 WSHFT 1201 SLP266 T01440056
KORD 221351Z 09017KT 10SM FEW038 FEW250 16/05 A3032 RMK AO2 SLP268 T01560050
KORD 221451Z 09015KT 10SM SCT036 SCT250 16/06 A3033 RMK AO2 SLP271 T01560056 51007
KORD 221551Z 07013KT 10SM FEW038 FEW250 16/06 A3034 RMK AO2 SLP272 T01610061
KORD 221651Z 07013KT 10SM FEW038 FEW250 16/05 A3032 RMK AO2 SLP266 T01610050
KORD 221751Z 07010KT 10SM FEW038 FEW250 17/04 A3030 RMK AO2 SLP259 T01670039 10172 20111 58012
KORD 221851Z 07009KT 10SM FEW038 FEW250 17/05 A3028 RMK AO2 SLP252 T01670050



Page loaded:  19:07 UTC  |   12:07 PM Pacific  |   01:07 PM Mountain  |   02:07 PM Central  |   03:07 PM Eastern

 

ADVISORIES

FORECASTS

FORECASTS

OBSERVATIONS

USER TOOLS

ABOUT US